createdAt,value
2023-03-11T00:00:16.967Z,0.00
2023-03-11T00:02:45.080Z,0.20
2023-03-11T00:05:15.224Z,0.03
2023-03-11T00:07:42.849Z,0.10
2023-03-11T00:10:14.284Z,0.57
2023-03-11T00:12:41.547Z,0.28
2023-03-11T00:15:08.986Z,0.20
2023-03-11T00:17:36.173Z,0.00
2023-03-11T00:20:04.816Z,0.25
2023-03-11T00:22:31.994Z,0.03
2023-03-11T00:24:59.366Z,0.45
2023-03-11T00:27:26.714Z,0.00
2023-03-11T00:29:53.937Z,0.10
2023-03-11T00:32:21.124Z,0.45
2023-03-11T00:34:48.325Z,0.43
2023-03-11T00:37:15.477Z,0.50
2023-03-11T00:39:42.716Z,0.35
2023-03-11T00:42:09.874Z,0.10
2023-03-11T00:44:37.045Z,0.10
2023-03-11T00:47:04.307Z,0.20
2023-03-11T00:49:33.125Z,0.00
2023-03-11T00:52:00.242Z,0.00
2023-03-11T00:54:28.478Z,0.20
2023-03-11T00:56:55.673Z,0.28
2023-03-11T00:59:23.100Z,0.00
2023-03-11T01:01:50.257Z,0.00
2023-03-11T01:04:17.531Z,0.05
2023-03-11T01:06:45.798Z,0.20
2023-03-11T01:09:13.155Z,0.00
2023-03-11T01:11:40.389Z,0.00
2023-03-11T01:14:07.746Z,0.28
2023-03-11T01:16:35.020Z,0.10
2023-03-11T01:19:02.208Z,0.10
2023-03-11T01:21:29.407Z,0.08
2023-03-11T01:23:56.726Z,0.38
2023-03-11T01:26:24.110Z,0.00
2023-03-11T01:28:51.354Z,0.15
2023-03-11T01:31:18.612Z,0.00
2023-03-11T01:33:45.819Z,0.00
2023-03-11T01:36:14.548Z,0.00
2023-03-11T01:38:41.738Z,0.17
2023-03-11T01:41:11.271Z,0.15
2023-03-11T01:43:41.451Z,0.75
2023-03-11T01:46:08.766Z,0.00
2023-03-11T01:48:36.191Z,0.40
2023-03-11T01:51:03.385Z,0.00
2023-03-11T01:53:30.662Z,0.08
2023-03-11T01:55:58.119Z,0.10
2023-03-11T01:58:26.828Z,0.00
2023-03-11T02:00:54.655Z,0.00
2023-03-11T02:03:26.929Z,0.00
2023-03-11T02:05:55.938Z,0.00
2023-03-11T02:08:23.819Z,0.00
2023-03-11T02:10:57.915Z,0.00
2023-03-11T02:13:25.214Z,0.25
2023-03-11T02:15:53.696Z,0.10
2023-03-11T02:18:22.299Z,0.25
2023-03-11T02:21:02.531Z,0.00
2023-03-11T02:23:34.481Z,0.00
2023-03-11T02:26:16.466Z,0.50
2023-03-11T02:28:44.663Z,0.00
2023-03-11T02:31:13.754Z,0.00
2023-03-11T02:33:41.266Z,0.00
2023-03-11T02:36:08.983Z,0.00
2023-03-11T02:38:36.642Z,0.00
2023-03-11T02:41:03.897Z,0.10
2023-03-11T02:43:42.531Z,0.03
2023-03-11T02:46:10.362Z,0.00
2023-03-11T02:48:38.125Z,0.00
2023-03-11T02:51:05.890Z,0.13
2023-03-11T02:53:36.378Z,0.00
2023-03-11T02:56:03.602Z,0.00
2023-03-11T02:58:30.725Z,0.05
2023-03-11T03:00:58.067Z,0.00
2023-03-11T03:03:25.443Z,0.00
2023-03-11T03:05:52.702Z,0.03
2023-03-11T03:08:19.890Z,0.20
2023-03-11T03:10:47.412Z,0.17
2023-03-11T03:13:14.543Z,0.00
2023-03-11T03:15:41.727Z,0.08
2023-03-11T03:18:08.917Z,0.08
2023-03-11T03:20:36.351Z,0.00
2023-03-11T03:23:03.554Z,0.00
2023-03-11T03:25:31.039Z,0.00
2023-03-11T03:27:58.215Z,0.00
2023-03-11T03:30:25.434Z,0.00
2023-03-11T03:32:52.721Z,0.13
2023-03-11T03:35:19.987Z,0.00
2023-03-11T03:37:47.196Z,0.15
2023-03-11T03:40:14.537Z,0.00
2023-03-11T03:42:41.704Z,0.00
2023-03-11T03:45:09.287Z,0.10
2023-03-11T03:47:36.879Z,0.17
2023-03-11T03:50:05.424Z,0.00
2023-03-11T03:52:32.590Z,0.13
2023-03-11T03:54:59.731Z,0.08
2023-03-11T03:57:27.012Z,0.40
2023-03-11T03:59:54.227Z,0.10
2023-03-11T04:02:21.504Z,0.00
2023-03-11T04:04:49.005Z,0.00
2023-03-11T04:07:16.259Z,0.00
2023-03-11T04:09:44.473Z,0.00
2023-03-11T04:12:14.778Z,0.00
2023-03-11T04:14:42.282Z,0.03
2023-03-11T04:17:11.213Z,0.00
2023-03-11T04:19:38.474Z,0.00
2023-03-11T04:22:06.252Z,0.52
2023-03-11T04:24:33.595Z,0.00
2023-03-11T04:27:01.450Z,0.00
2023-03-11T04:29:30.914Z,0.00
2023-03-11T04:31:58.153Z,0.25
2023-03-11T04:34:25.430Z,0.20
2023-03-11T04:36:55.968Z,0.00
2023-03-11T04:39:23.152Z,0.22
2023-03-11T04:41:50.320Z,0.05
2023-03-11T04:44:17.595Z,0.10
2023-03-11T04:46:44.814Z,0.10
2023-03-11T04:49:11.990Z,0.55
2023-03-11T04:51:39.311Z,0.32
2023-03-11T04:54:06.990Z,0.00
2023-03-11T04:56:34.195Z,0.10
2023-03-11T04:59:01.455Z,0.22
2023-03-11T05:01:28.838Z,0.10
2023-03-11T05:03:56.098Z,0.00
2023-03-11T05:06:23.298Z,0.05
2023-03-11T05:08:50.439Z,0.00
2023-03-11T05:11:17.618Z,0.00
2023-03-11T05:13:45.016Z,0.17
2023-03-11T05:16:12.304Z,0.57
2023-03-11T05:18:39.555Z,0.00
2023-03-11T05:21:06.992Z,0.00
2023-03-11T05:23:34.154Z,0.10
2023-03-11T05:26:01.341Z,0.00
2023-03-11T05:28:28.498Z,0.00
2023-03-11T05:30:55.746Z,0.30
2023-03-11T05:33:22.983Z,0.00
2023-03-11T05:35:52.065Z,0.20
2023-03-11T05:38:19.329Z,0.28
2023-03-11T05:40:47.018Z,0.00
2023-03-11T05:43:14.203Z,0.20
2023-03-11T05:45:41.404Z,0.00
2023-03-11T05:48:08.626Z,0.08
2023-03-11T05:50:35.829Z,0.20
2023-03-11T05:53:03.054Z,0.03
2023-03-11T05:55:30.306Z,0.05
2023-03-11T05:57:57.496Z,0.10
2023-03-11T06:00:24.709Z,0.17
2023-03-11T06:02:51.988Z,0.10
2023-03-11T06:05:19.239Z,0.30
2023-03-11T06:07:46.463Z,0.15
2023-03-11T06:10:13.889Z,0.13
2023-03-11T06:12:41.081Z,0.00
2023-03-11T06:15:08.666Z,0.00
2023-03-11T06:17:35.865Z,0.00
2023-03-11T06:20:03.491Z,0.00
2023-03-11T06:22:31.854Z,0.00
2023-03-11T06:24:59.069Z,0.38
2023-03-11T06:27:26.321Z,0.00
2023-03-11T06:29:54.580Z,0.10
2023-03-11T06:32:21.744Z,0.17
2023-03-11T06:34:52.844Z,0.05
2023-03-11T06:37:21.124Z,0.00
2023-03-11T06:39:48.331Z,0.20
2023-03-11T06:42:15.538Z,0.50
2023-03-11T06:44:42.805Z,0.00
2023-03-11T06:47:10.115Z,0.20
2023-03-11T06:49:40.834Z,0.30
2023-03-11T06:52:08.708Z,0.32
2023-03-11T06:54:36.578Z,0.10
2023-03-11T06:57:03.851Z,0.20
2023-03-11T06:59:31.048Z,0.63
2023-03-11T07:01:59.398Z,0.25
2023-03-11T07:04:26.583Z,0.20
2023-03-11T07:06:53.766Z,0.10
2023-03-11T07:09:22.441Z,0.10
2023-03-11T07:11:49.765Z,0.20
2023-03-11T07:14:17.788Z,0.30
2023-03-11T07:16:45.402Z,0.10
2023-03-11T07:19:13.281Z,0.20
2023-03-11T07:21:42.318Z,0.57
2023-03-11T07:24:12.102Z,0.28
2023-03-11T07:26:39.585Z,0.75
2023-03-11T07:29:07.046Z,0.73
2023-03-11T07:31:35.324Z,0.45
2023-03-11T07:34:11.168Z,0.32
2023-03-11T07:36:40.185Z,0.30
2023-03-11T07:39:07.384Z,0.05
2023-03-11T07:41:35.444Z,0.05
2023-03-11T07:44:03.252Z,0.30
2023-03-11T07:46:30.962Z,0.00
2023-03-11T07:48:58.214Z,0.50
2023-03-11T07:51:29.898Z,0.20
2023-03-11T07:53:58.373Z,0.08
2023-03-11T07:56:26.184Z,0.08
2023-03-11T07:58:54.994Z,0.30
2023-03-11T08:01:23.557Z,0.45
2023-03-11T08:03:56.646Z,0.25
2023-03-11T08:06:25.739Z,0.20
2023-03-11T08:08:52.906Z,0.38
2023-03-11T08:11:23.618Z,0.20
2023-03-11T08:13:51.086Z,0.50
2023-03-11T08:16:19.843Z,0.22
2023-03-11T08:18:47.859Z,0.00
2023-03-11T08:21:16.766Z,0.32
2023-03-11T08:23:46.054Z,0.47
2023-03-11T08:26:14.457Z,0.08
2023-03-11T08:28:41.683Z,0.30
2023-03-11T08:31:19.169Z,0.15
2023-03-11T08:33:47.574Z,0.30
2023-03-11T08:36:14.881Z,0.13
2023-03-11T08:38:42.344Z,0.00
2023-03-11T08:41:09.728Z,0.20
2023-03-11T08:43:36.973Z,0.38
2023-03-11T08:46:08.986Z,0.10
2023-03-11T08:48:37.988Z,1.35
2023-03-11T08:51:12.436Z,0.10
2023-03-11T08:53:39.739Z,0.08
2023-03-11T08:56:07.606Z,0.20
2023-03-11T08:58:34.766Z,0.40
2023-03-11T09:01:02.010Z,0.10
2023-03-11T09:03:32.064Z,0.00
2023-03-11T09:06:00.289Z,0.03
2023-03-11T09:08:27.560Z,0.00
2023-03-11T09:10:55.041Z,0.47
2023-03-11T09:13:22.213Z,0.00
2023-03-11T09:15:50.182Z,0.20
2023-03-11T09:18:17.843Z,0.20
2023-03-11T09:20:45.777Z,0.00
2023-03-11T09:23:14.144Z,0.00
2023-03-11T09:25:41.403Z,0.00
2023-03-11T09:28:08.627Z,0.00
2023-03-11T09:30:36.179Z,0.05
2023-03-11T09:33:03.450Z,0.00
2023-03-11T09:35:30.724Z,0.10
2023-03-11T09:37:57.902Z,0.00
2023-03-11T09:40:26.325Z,0.17
2023-03-11T09:43:15.648Z,0.00
2023-03-11T09:45:50.744Z,0.00
2023-03-11T09:48:22.742Z,0.85
2023-03-11T09:51:13.100Z,0.08
2023-03-11T09:53:40.299Z,0.32
2023-03-11T09:56:12.381Z,0.00
2023-03-11T09:58:45.351Z,0.00
2023-03-11T10:01:16.353Z,0.00
2023-03-11T10:03:43.987Z,0.00
2023-03-11T10:06:23.109Z,0.00
2023-03-11T10:09:09.862Z,0.00
2023-03-11T10:12:00.661Z,0.00
2023-03-11T10:14:37.807Z,0.00
2023-03-11T10:17:10.798Z,0.00
2023-03-11T10:19:45.690Z,0.00
2023-03-11T10:22:15.723Z,0.00
2023-03-11T10:24:42.916Z,0.00
2023-03-11T10:27:14.665Z,0.00
2023-03-11T10:29:48.892Z,0.00
2023-03-11T10:32:19.480Z,0.00
2023-03-11T10:34:50.355Z,0.55
2023-03-11T10:37:27.415Z,0.00
2023-03-11T10:39:58.281Z,0.00
2023-03-11T10:42:28.210Z,0.00
2023-03-11T10:44:55.512Z,0.22
2023-03-11T10:47:25.271Z,0.00
2023-03-11T10:49:54.015Z,0.00
2023-03-11T10:52:21.296Z,0.10
2023-03-11T10:54:49.578Z,0.20
2023-03-11T10:57:22.539Z,0.20
2023-03-11T10:59:52.831Z,0.20
2023-03-11T11:02:29.103Z,0.00
2023-03-11T11:05:22.850Z,0.05
2023-03-11T11:07:53.054Z,0.00
2023-03-11T11:10:27.465Z,0.00
2023-03-11T11:12:57.711Z,0.00
2023-03-11T11:15:32.007Z,0.10
2023-03-11T11:18:17.360Z,0.00
2023-03-11T11:20:56.176Z,0.30
2023-03-11T11:23:42.168Z,0.00
2023-03-11T11:26:18.623Z,0.00
2023-03-11T11:28:46.278Z,0.10
2023-03-11T11:31:22.460Z,0.05
2023-03-11T11:33:50.800Z,0.00
2023-03-11T11:36:18.702Z,0.10
2023-03-11T11:38:45.912Z,0.00
2023-03-11T11:41:17.583Z,0.00
2023-03-11T11:43:49.669Z,0.10
2023-03-11T11:46:31.200Z,0.00
2023-03-11T11:49:01.311Z,0.00
2023-03-11T11:51:38.165Z,0.00
2023-03-11T11:54:15.359Z,0.00
2023-03-11T11:56:42.549Z,0.10
2023-03-11T11:59:23.052Z,0.00
2023-03-11T12:02:10.592Z,0.00
2023-03-11T12:04:43.562Z,0.00
2023-03-11T12:07:19.875Z,0.00
2023-03-11T12:09:52.554Z,0.32
2023-03-11T12:14:55.722Z,0.63
2023-03-11T12:17:23.860Z,0.08
2023-03-11T12:19:53.905Z,0.00
2023-03-11T12:22:39.424Z,0.10
2023-03-11T12:25:21.976Z,0.00
2023-03-11T12:27:53.258Z,0.00
2023-03-11T12:30:27.302Z,0.00
2023-03-11T12:33:00.000Z,0.20
2023-03-11T12:38:16.814Z,0.00
2023-03-11T12:40:44.071Z,0.08
2023-03-11T12:43:30.148Z,0.20
2023-03-11T12:45:59.472Z,0.00
2023-03-11T12:48:29.420Z,0.00
2023-03-11T12:51:00.257Z,0.75
2023-03-11T12:53:46.198Z,0.00
2023-03-11T12:56:28.676Z,0.00
2023-03-11T12:58:59.027Z,0.08
2023-03-11T13:01:46.939Z,0.00
2023-03-11T13:04:21.134Z,0.03
2023-03-11T13:07:25.834Z,0.00
2023-03-11T13:10:08.843Z,0.00
2023-03-11T13:12:38.738Z,0.28
2023-03-11T13:15:24.127Z,0.05
2023-03-11T13:17:57.299Z,0.15
2023-03-11T13:20:43.603Z,0.00
2023-03-11T13:23:11.615Z,0.10
2023-03-11T13:25:59.960Z,0.05
2023-03-11T13:28:29.797Z,0.00
2023-03-11T13:31:15.547Z,0.00
2023-03-11T13:33:42.664Z,0.38
2023-03-11T13:36:22.551Z,0.20
2023-03-11T13:38:58.635Z,0.00
2023-03-11T13:41:31.390Z,0.00
2023-03-11T13:44:01.496Z,0.00
2023-03-11T13:46:31.318Z,0.00
2023-03-11T13:49:04.397Z,0.00
2023-03-11T13:51:43.408Z,0.00
2023-03-11T13:54:10.872Z,0.00
2023-03-11T13:56:46.749Z,0.00
2023-03-11T13:59:18.307Z,0.10
2023-03-11T14:01:52.038Z,0.00
2023-03-11T14:04:37.697Z,0.08
2023-03-11T14:07:35.207Z,0.05
2023-03-11T14:10:22.312Z,0.00
2023-03-11T14:12:50.004Z,0.40
2023-03-11T14:15:25.175Z,0.00
2023-03-11T14:17:53.175Z,0.00
2023-03-11T14:20:22.430Z,0.22
2023-03-11T14:22:50.977Z,0.00
2023-03-11T14:25:28.654Z,0.00
2023-03-11T14:28:02.790Z,0.00
2023-03-11T14:30:31.080Z,0.00
2023-03-11T14:33:05.671Z,0.00
2023-03-11T14:35:34.247Z,0.00
2023-03-11T14:38:01.798Z,0.17
2023-03-11T14:40:31.369Z,0.00
2023-03-11T14:43:04.126Z,0.00
2023-03-11T14:45:33.271Z,0.00
2023-03-11T14:48:04.207Z,0.00
2023-03-11T14:50:33.634Z,0.00
2023-03-11T14:53:16.225Z,0.00
2023-03-11T14:55:53.186Z,0.00
2023-03-11T14:58:26.409Z,0.00
2023-03-11T15:00:56.630Z,0.10
2023-03-11T15:03:29.055Z,0.52
2023-03-11T15:06:19.613Z,0.10
2023-03-11T15:08:57.877Z,0.00
2023-03-11T15:11:28.277Z,0.00
2023-03-11T15:14:07.760Z,0.00
2023-03-11T15:16:37.862Z,0.00
2023-03-11T15:19:25.710Z,0.00
2023-03-11T15:21:54.526Z,0.00
2023-03-11T15:24:39.785Z,0.20
2023-03-11T15:27:08.538Z,0.00
2023-03-11T15:29:37.222Z,0.10
2023-03-11T15:32:23.351Z,0.10
2023-03-11T15:34:59.933Z,0.10
2023-03-11T15:37:27.402Z,0.00
2023-03-11T15:39:57.681Z,0.10
2023-03-11T15:42:26.178Z,0.10
2023-03-11T15:45:13.829Z,0.00
2023-03-11T15:47:41.344Z,0.28
2023-03-11T15:50:26.220Z,0.30
2023-03-11T15:52:56.802Z,0.15
2023-03-11T15:55:24.945Z,0.45
2023-03-11T15:57:56.011Z,0.28
2023-03-11T16:00:24.074Z,0.00
2023-03-11T16:02:51.942Z,0.80
2023-03-11T16:05:21.683Z,0.00
2023-03-11T16:07:49.340Z,0.22
2023-03-11T16:10:19.361Z,0.08
2023-03-11T16:12:46.702Z,0.10
2023-03-11T16:15:20.007Z,0.30
2023-03-11T16:17:49.999Z,0.08
2023-03-11T16:20:18.539Z,0.10
2023-03-11T16:22:45.985Z,0.22
2023-03-11T16:25:33.730Z,0.10
2023-03-11T16:28:01.625Z,0.30
2023-03-11T16:30:30.715Z,0.05
2023-03-11T16:32:58.188Z,0.00
2023-03-11T16:35:25.976Z,0.40
2023-03-11T16:37:53.518Z,0.15
2023-03-11T16:40:22.606Z,0.28
2023-03-11T16:42:49.837Z,0.00
2023-03-11T16:45:18.100Z,0.32
2023-03-11T16:47:45.401Z,0.20
2023-03-11T16:50:12.722Z,0.10
2023-03-11T16:52:40.264Z,0.43
2023-03-11T16:55:07.671Z,0.40
2023-03-11T16:57:34.940Z,1.00
2023-03-11T17:00:02.177Z,0.40
2023-03-11T17:02:29.390Z,0.57
2023-03-11T17:04:56.722Z,0.30
2023-03-11T17:07:24.237Z,0.40
2023-03-11T17:09:53.769Z,0.20
2023-03-11T17:12:23.066Z,0.10
2023-03-11T17:14:50.257Z,0.10
2023-03-11T17:17:17.432Z,0.15
2023-03-11T17:19:44.676Z,0.28
2023-03-11T17:22:11.958Z,0.30
2023-03-11T17:24:40.226Z,0.00
2023-03-11T17:27:07.752Z,0.25
2023-03-11T17:29:34.974Z,0.13
2023-03-11T17:32:02.837Z,0.00
2023-03-11T17:34:30.072Z,0.10
2023-03-11T17:36:57.847Z,0.10
2023-03-11T17:39:25.050Z,0.25
2023-03-11T17:41:52.282Z,0.20
2023-03-11T17:44:19.888Z,0.35
2023-03-11T17:46:47.151Z,0.20
2023-03-11T17:49:15.606Z,0.73
2023-03-11T17:51:42.970Z,0.40
2023-03-11T17:54:10.270Z,0.68
2023-03-11T17:56:37.460Z,0.43
2023-03-11T17:59:04.716Z,0.13
2023-03-11T18:01:32.340Z,0.00
2023-03-11T18:04:00.557Z,0.77
2023-03-11T18:06:27.983Z,1.23
2023-03-11T18:08:55.222Z,0.82
2023-03-11T18:11:23.834Z,0.65
2023-03-11T18:13:51.586Z,0.98
2023-03-11T18:16:21.600Z,1.10
2023-03-11T18:18:49.291Z,0.85
2023-03-11T18:21:18.256Z,0.38
2023-03-11T18:23:45.788Z,0.60
2023-03-11T18:26:14.385Z,0.52
2023-03-11T18:28:41.808Z,0.30
2023-03-11T18:31:16.383Z,0.73
2023-03-11T18:33:46.897Z,0.70
2023-03-11T18:36:18.746Z,1.00
2023-03-11T18:38:46.429Z,0.63
2023-03-11T18:41:13.929Z,0.55
2023-03-11T18:43:41.440Z,0.32
2023-03-11T18:46:09.552Z,0.70
2023-03-11T18:48:36.807Z,0.60
2023-03-11T18:51:03.994Z,0.80
2023-03-11T18:53:31.266Z,0.45
2023-03-11T18:56:05.838Z,0.73
2023-03-11T18:58:33.378Z,1.27
2023-03-11T19:01:05.150Z,0.60
2023-03-11T19:03:32.456Z,1.55
2023-03-11T19:06:00.152Z,1.42
2023-03-11T19:08:27.779Z,0.60
2023-03-11T19:10:54.907Z,0.65
2023-03-11T19:13:22.108Z,0.50
2023-03-11T19:15:49.314Z,0.60
2023-03-11T19:18:16.585Z,1.35
2023-03-11T19:20:44.074Z,0.68
2023-03-11T19:23:11.406Z,0.00
2023-03-11T19:25:38.658Z,1.38
2023-03-11T19:28:05.977Z,2.95
2023-03-11T19:30:33.423Z,0.77
2023-03-11T19:33:00.724Z,0.85
2023-03-11T19:35:27.975Z,0.60
2023-03-11T19:37:57.384Z,0.90
2023-03-11T19:40:24.720Z,0.82
2023-03-11T19:42:52.529Z,1.35
2023-03-11T19:45:19.842Z,1.02
2023-03-11T19:47:50.906Z,0.55
2023-03-11T19:50:19.917Z,1.05
2023-03-11T19:52:47.113Z,0.82
2023-03-11T19:55:14.407Z,1.30
2023-03-11T19:57:41.697Z,0.93
2023-03-11T20:00:09.436Z,1.58
2023-03-11T20:02:36.951Z,0.80
2023-03-11T20:05:04.256Z,0.28
2023-03-11T20:07:31.467Z,0.55
2023-03-11T20:09:58.753Z,0.45
2023-03-11T20:12:26.013Z,0.75
2023-03-11T20:14:53.235Z,1.63
2023-03-11T20:17:20.470Z,0.30
2023-03-11T20:19:47.911Z,0.77
2023-03-11T20:22:15.198Z,0.45
2023-03-11T20:24:42.577Z,0.68
2023-03-11T20:27:09.831Z,0.85
2023-03-11T20:29:37.075Z,1.48
2023-03-11T20:32:04.447Z,0.32
2023-03-11T20:34:31.709Z,0.38
2023-03-11T20:36:59.058Z,1.05
2023-03-11T20:39:26.362Z,1.48
2023-03-11T20:41:53.756Z,1.85
2023-03-11T20:44:20.997Z,1.08
2023-03-11T20:46:49.475Z,1.38
2023-03-11T20:49:16.745Z,0.93
2023-03-11T20:51:48.019Z,1.48
2023-03-11T20:54:15.945Z,0.43
2023-03-11T20:56:43.646Z,0.90
2023-03-11T20:59:13.933Z,0.38
2023-03-11T21:01:41.328Z,0.70
2023-03-11T21:04:08.724Z,0.28
2023-03-11T21:06:37.375Z,0.88
2023-03-11T21:09:06.674Z,0.85
2023-03-11T21:11:34.067Z,1.23
2023-03-11T21:14:01.476Z,0.93
2023-03-11T21:16:28.818Z,0.85
2023-03-11T21:18:56.055Z,0.60
2023-03-11T21:21:23.428Z,0.43
2023-03-11T21:23:50.862Z,0.88
2023-03-11T21:26:18.945Z,0.80
2023-03-11T21:28:46.929Z,1.40
2023-03-11T21:31:16.184Z,0.25
2023-03-11T21:33:43.648Z,1.08
2023-03-11T21:36:11.617Z,0.25
2023-03-11T21:38:40.594Z,1.20
2023-03-11T21:41:09.737Z,0.60
2023-03-11T21:43:37.606Z,0.85
2023-03-11T21:46:05.442Z,0.60
2023-03-11T21:48:33.002Z,0.50
2023-03-11T21:51:00.564Z,0.88
2023-03-11T21:53:28.019Z,0.88
2023-03-11T21:55:55.192Z,0.90
2023-03-11T21:58:22.670Z,0.77
2023-03-11T22:00:50.204Z,0.98
2023-03-11T22:03:17.771Z,0.63
2023-03-11T22:05:45.302Z,0.63
2023-03-11T22:08:14.580Z,0.98
2023-03-11T22:10:42.520Z,0.90
2023-03-11T22:13:09.775Z,0.77
2023-03-11T22:15:37.519Z,0.43
2023-03-11T22:18:07.800Z,1.33
2023-03-11T22:20:35.188Z,0.55
2023-03-11T22:23:03.663Z,1.25
2023-03-11T22:25:31.045Z,1.83
2023-03-11T22:27:58.409Z,0.90
2023-03-11T22:30:25.720Z,1.33
2023-03-11T22:32:53.035Z,1.90
2023-03-11T22:35:20.338Z,0.47
2023-03-11T22:37:47.620Z,0.90
2023-03-11T22:40:15.108Z,1.75
2023-03-11T22:42:42.583Z,0.80
2023-03-11T22:45:10.005Z,0.93
2023-03-11T22:47:37.165Z,1.35
2023-03-11T22:50:04.885Z,0.80
2023-03-11T22:52:32.085Z,0.80
2023-03-11T22:54:59.286Z,0.70
2023-03-11T22:57:26.475Z,0.35
2023-03-11T22:59:53.770Z,0.70
2023-03-11T23:02:21.090Z,0.80
2023-03-11T23:04:48.354Z,0.60
2023-03-11T23:07:15.576Z,0.73
2023-03-11T23:09:42.975Z,0.80
2023-03-11T23:12:10.207Z,0.45
2023-03-11T23:14:45.086Z,1.05
2023-03-11T23:17:12.873Z,1.63
2023-03-11T23:19:40.142Z,1.10
2023-03-11T23:22:07.390Z,0.80
2023-03-11T23:24:34.782Z,1.30
2023-03-11T23:27:04.707Z,0.65
2023-03-11T23:29:32.323Z,1.10
2023-03-11T23:31:59.514Z,0.93
2023-03-11T23:34:26.724Z,0.73
2023-03-11T23:36:53.870Z,0.70
2023-03-11T23:39:21.067Z,0.98
2023-03-11T23:41:48.285Z,0.93
2023-03-11T23:44:16.298Z,0.73
2023-03-11T23:46:43.549Z,1.52
2023-03-11T23:49:12.143Z,1.35
2023-03-11T23:51:39.274Z,0.57
2023-03-11T23:54:06.865Z,0.43
2023-03-11T23:56:34.016Z,0.68
2023-03-11T23:59:01.184Z,0.55
